createdAt,value
2023-01-10T00:00:49.948Z,6.37
2023-01-10T00:03:18.460Z,7.80
2023-01-10T00:05:47.604Z,7.80
2023-01-10T00:08:17.196Z,6.93
2023-01-10T00:10:45.735Z,7.83
2023-01-10T00:13:24.143Z,8.00
2023-01-10T00:15:54.566Z,8.27
2023-01-10T00:18:23.537Z,9.03
2023-01-10T00:20:52.087Z,9.30
2023-01-10T00:23:24.470Z,9.43
2023-01-10T00:25:52.906Z,8.43
2023-01-10T00:28:21.345Z,7.93
2023-01-10T00:31:00.841Z,7.87
2023-01-10T00:33:32.924Z,7.30
2023-01-10T00:36:01.635Z,7.67
2023-01-10T00:38:30.984Z,7.23
2023-01-10T00:40:59.430Z,8.20
2023-01-10T00:43:45.586Z,7.20
2023-01-10T00:46:14.497Z,7.00
2023-01-10T00:48:44.393Z,7.77
2023-01-10T00:51:12.897Z,7.23
2023-01-10T00:53:41.341Z,7.93
2023-01-10T00:56:10.041Z,7.77
2023-01-10T00:58:38.518Z,8.50
2023-01-10T01:01:07.273Z,7.80
2023-01-10T01:03:35.784Z,8.70
2023-01-10T01:06:07.936Z,7.73
2023-01-10T01:08:36.501Z,8.73
2023-01-10T01:11:05.006Z,9.97
2023-01-10T01:13:33.518Z,9.00
2023-01-10T01:16:02.058Z,7.90
2023-01-10T01:18:30.850Z,9.07
2023-01-10T01:21:03.534Z,7.90
2023-01-10T01:23:34.894Z,9.07
2023-01-10T01:26:03.375Z,9.17
2023-01-10T01:28:31.838Z,8.70
2023-01-10T01:31:00.292Z,8.23
2023-01-10T01:33:28.923Z,7.30
2023-01-10T01:35:57.395Z,8.07
2023-01-10T01:38:25.854Z,8.00
2023-01-10T01:40:55.717Z,8.70
2023-01-10T01:43:25.775Z,7.07
2023-01-10T01:45:54.385Z,8.17
2023-01-10T01:48:30.816Z,7.27
2023-01-10T01:51:05.647Z,7.00
2023-01-10T01:53:36.059Z,6.30
2023-01-10T01:56:08.412Z,7.17
2023-01-10T01:58:40.725Z,6.73
2023-01-10T02:01:09.565Z,6.87
2023-01-10T02:03:38.247Z,6.57
2023-01-10T02:06:07.037Z,8.27
2023-01-10T02:08:35.717Z,6.60
2023-01-10T02:11:08.700Z,6.93
2023-01-10T02:13:39.674Z,5.60
2023-01-10T02:16:08.524Z,7.83
2023-01-10T02:18:37.653Z,5.50
2023-01-10T02:21:13.341Z,5.53
2023-01-10T02:24:05.515Z,5.13
2023-01-10T02:26:48.036Z,5.47
2023-01-10T02:29:28.744Z,5.17
2023-01-10T02:32:08.722Z,6.40
2023-01-10T02:34:41.481Z,6.23
2023-01-10T02:37:13.378Z,4.30
2023-01-10T02:39:48.537Z,5.10
2023-01-10T02:42:20.950Z,5.13
2023-01-10T02:44:53.356Z,4.03
2023-01-10T02:47:23.384Z,5.27
2023-01-10T02:49:53.032Z,4.40
2023-01-10T02:52:24.275Z,5.87
2023-01-10T02:54:55.871Z,5.37
2023-01-10T02:57:33.676Z,7.87
2023-01-10T03:00:10.617Z,8.63
2023-01-10T03:02:46.228Z,8.40
2023-01-10T03:05:20.247Z,12.23
2023-01-10T03:07:55.500Z,11.70
2023-01-10T03:10:27.659Z,11.67
2023-01-10T03:12:58.028Z,13.90
2023-01-10T03:15:28.374Z,14.17
2023-01-10T03:18:00.467Z,15.07
2023-01-10T03:20:29.370Z,17.87
2023-01-10T03:22:58.257Z,18.67
2023-01-10T03:25:28.271Z,19.53
2023-01-10T03:27:58.064Z,20.83
2023-01-10T03:30:30.063Z,20.33
2023-01-10T03:33:00.888Z,20.93
2023-01-10T03:35:34.804Z,21.23
2023-01-10T03:38:06.150Z,20.50
2023-01-10T03:40:38.157Z,20.60
2023-01-10T03:43:29.547Z,22.63
2023-01-10T03:46:02.512Z,21.77
2023-01-10T03:48:34.212Z,24.83
2023-01-10T03:51:04.597Z,33.63
2023-01-10T03:53:33.186Z,24.77
2023-01-10T03:56:02.010Z,23.53
2023-01-10T03:58:30.654Z,22.80
2023-01-10T04:00:59.190Z,23.30
2023-01-10T04:03:27.698Z,22.53
2023-01-10T04:05:57.558Z,23.07
2023-01-10T04:08:25.997Z,23.50
2023-01-10T04:10:54.442Z,26.20
2023-01-10T04:13:22.931Z,24.37
2023-01-10T04:15:51.620Z,22.37
2023-01-10T04:18:20.294Z,23.17
2023-01-10T04:20:50.604Z,24.00
2023-01-10T04:23:21.849Z,22.03
2023-01-10T04:25:50.368Z,22.67
2023-01-10T04:28:18.843Z,23.97
2023-01-10T04:30:47.748Z,24.53
2023-01-10T04:33:16.200Z,23.73
2023-01-10T04:35:49.294Z,21.10
2023-01-10T04:38:17.831Z,23.43
2023-01-10T04:40:54.154Z,25.03
2023-01-10T04:43:22.700Z,27.70
2023-01-10T04:45:51.177Z,25.00
2023-01-10T04:48:20.103Z,25.63
2023-01-10T04:50:51.983Z,21.90
2023-01-10T04:53:20.641Z,24.67
2023-01-10T04:55:50.884Z,23.30
2023-01-10T04:58:19.374Z,23.43
2023-01-10T05:00:48.428Z,25.60
2023-01-10T05:03:20.361Z,25.47
2023-01-10T05:05:48.864Z,29.97
2023-01-10T05:08:17.287Z,29.23
2023-01-10T05:10:45.803Z,28.90
2023-01-10T05:13:15.645Z,28.13
2023-01-10T05:15:44.111Z,28.13
2023-01-10T05:18:12.594Z,26.27
2023-01-10T05:20:41.052Z,31.50
2023-01-10T05:23:09.530Z,29.73
2023-01-10T05:25:38.059Z,30.77
2023-01-10T05:28:06.742Z,30.17
2023-01-10T05:30:36.913Z,29.77
2023-01-10T05:33:06.043Z,32.63
2023-01-10T05:35:34.510Z,32.50
2023-01-10T05:38:02.968Z,34.33
2023-01-10T05:40:31.683Z,30.83
2023-01-10T05:43:00.137Z,31.27
2023-01-10T05:45:28.605Z,31.73
2023-01-10T05:47:58.469Z,30.63
2023-01-10T05:50:27.054Z,34.20
2023-01-10T05:52:55.561Z,32.97
2023-01-10T05:55:25.358Z,32.47
2023-01-10T05:57:53.790Z,34.17
2023-01-10T06:00:24.939Z,33.80
2023-01-10T06:02:56.036Z,30.77
2023-01-10T06:05:26.206Z,38.43
2023-01-10T06:07:54.691Z,33.93
2023-01-10T06:10:23.160Z,29.57
2023-01-10T06:12:51.654Z,30.50
2023-01-10T06:15:20.178Z,30.53
2023-01-10T06:17:48.761Z,31.83
2023-01-10T06:20:17.273Z,30.97
2023-01-10T06:22:47.164Z,32.63
2023-01-10T06:25:15.853Z,28.83
2023-01-10T06:27:44.770Z,34.00
2023-01-10T06:30:14.847Z,31.93
2023-01-10T06:32:43.469Z,29.87
2023-01-10T06:35:12.233Z,29.87
2023-01-10T06:37:40.783Z,30.87
2023-01-10T06:40:11.681Z,27.63
2023-01-10T06:42:40.286Z,26.77
2023-01-10T06:45:09.092Z,24.63
2023-01-10T06:47:37.716Z,24.63
2023-01-10T06:50:07.942Z,23.10
2023-01-10T06:52:36.390Z,23.40
2023-01-10T06:55:04.933Z,20.93
2023-01-10T06:57:35.565Z,21.80
2023-01-10T07:00:04.182Z,23.57
2023-01-10T07:02:32.946Z,18.37
2023-01-10T07:05:01.409Z,23.57
2023-01-10T07:07:29.870Z,22.30
2023-01-10T07:09:59.808Z,29.77
2023-01-10T07:12:28.275Z,36.27
2023-01-10T07:14:58.110Z,35.07
2023-01-10T07:17:26.557Z,35.67
2023-01-10T07:19:55.225Z,37.17
2023-01-10T07:22:23.675Z,37.07
2023-01-10T07:24:52.139Z,41.23
2023-01-10T07:27:20.602Z,38.27
2023-01-10T07:29:49.023Z,39.37
2023-01-10T07:32:18.849Z,40.53
2023-01-10T07:34:47.315Z,41.57
2023-01-10T07:37:15.749Z,34.77
2023-01-10T07:39:44.692Z,39.40
2023-01-10T07:42:13.391Z,40.37
2023-01-10T07:44:41.847Z,37.30
2023-01-10T07:47:11.605Z,36.73
2023-01-10T07:49:41.846Z,37.53
2023-01-10T07:52:10.370Z,42.63
2023-01-10T07:54:39.359Z,38.13
2023-01-10T07:57:07.839Z,39.97
2023-01-10T07:59:36.308Z,38.87
2023-01-10T08:02:04.809Z,35.00
2023-01-10T08:04:33.352Z,38.20
2023-01-10T08:07:03.414Z,36.07
2023-01-10T08:09:32.240Z,33.43
2023-01-10T08:12:00.681Z,38.50
2023-01-10T08:14:29.207Z,41.83
2023-01-10T08:16:57.772Z,37.77
2023-01-10T08:19:26.221Z,40.57
2023-01-10T08:21:56.277Z,37.47
2023-01-10T08:24:26.409Z,34.93
2023-01-10T08:26:54.857Z,36.93
2023-01-10T08:29:23.294Z,40.00
2023-01-10T08:31:51.786Z,39.30
2023-01-10T08:34:20.256Z,36.37
2023-01-10T08:36:51.691Z,39.33
2023-01-10T08:39:20.769Z,41.73
2023-01-10T08:41:51.030Z,39.10
2023-01-10T08:44:19.529Z,36.97
2023-01-10T08:46:48.033Z,32.40
2023-01-10T08:49:16.633Z,38.50
2023-01-10T08:51:45.396Z,34.63
2023-01-10T08:54:13.872Z,38.23
2023-01-10T08:56:42.324Z,39.77
2023-01-10T08:59:12.211Z,37.17
2023-01-10T09:01:40.797Z,33.37
2023-01-10T09:04:09.344Z,39.37
2023-01-10T09:06:38.354Z,32.73
2023-01-10T09:09:07.132Z,45.47
2023-01-10T09:11:35.719Z,39.53
2023-01-10T09:14:04.224Z,39.57
2023-01-10T09:16:34.310Z,37.23
2023-01-10T09:19:04.339Z,42.57
2023-01-10T09:21:33.066Z,34.93
2023-01-10T09:24:01.601Z,40.50
2023-01-10T09:26:30.098Z,40.50
2023-01-10T09:28:58.577Z,38.63
2023-01-10T09:31:27.080Z,38.53
2023-01-10T09:33:57.171Z,41.97
2023-01-10T09:36:25.641Z,39.87
2023-01-10T09:38:54.162Z,41.10
2023-01-10T09:41:42.624Z,41.97
2023-01-10T09:44:17.692Z,35.77
2023-01-10T09:46:52.393Z,38.30
2023-01-10T09:49:28.120Z,41.60
2023-01-10T09:51:59.237Z,37.47
2023-01-10T09:54:30.481Z,40.87
2023-01-10T09:57:00.211Z,46.73
2023-01-10T09:59:30.662Z,42.70
2023-01-10T10:02:02.601Z,33.17
2023-01-10T10:04:35.718Z,38.87
2023-01-10T10:07:04.777Z,40.43
2023-01-10T10:09:35.288Z,42.33
2023-01-10T10:12:20.170Z,44.67
2023-01-10T10:14:57.012Z,41.37
2023-01-10T10:17:33.999Z,30.90
2023-01-10T10:20:13.674Z,37.53
2023-01-10T10:22:47.726Z,40.53
2023-01-10T10:25:20.687Z,39.17
2023-01-10T10:27:56.942Z,36.40
2023-01-10T10:30:31.271Z,39.03
2023-01-10T10:33:08.795Z,31.80
2023-01-10T10:35:40.456Z,32.50
2023-01-10T10:38:12.503Z,36.53
2023-01-10T10:40:42.233Z,34.57
2023-01-10T10:43:15.599Z,34.77
2023-01-10T10:45:46.244Z,37.33
2023-01-10T10:48:16.363Z,27.87
2023-01-10T10:50:51.645Z,34.67
2023-01-10T10:53:20.284Z,34.43
2023-01-10T10:55:49.297Z,34.93
2023-01-10T10:58:18.292Z,34.03
2023-01-10T11:00:47.571Z,29.77
2023-01-10T11:03:23.044Z,27.77
2023-01-10T11:05:53.584Z,32.17
2023-01-10T11:08:23.431Z,32.97
2023-01-10T11:10:54.468Z,32.17
2023-01-10T11:13:26.024Z,28.67
2023-01-10T11:15:56.199Z,26.57
2023-01-10T11:18:25.714Z,29.63
2023-01-10T11:21:00.818Z,26.43
2023-01-10T11:23:33.542Z,29.80
2023-01-10T11:26:02.365Z,28.10
2023-01-10T11:28:32.088Z,27.20
2023-01-10T11:31:01.283Z,24.57
2023-01-10T11:33:31.782Z,26.70
2023-01-10T11:36:03.478Z,29.67
2023-01-10T11:38:32.366Z,30.37
2023-01-10T11:41:02.427Z,31.07
2023-01-10T11:43:33.924Z,21.57
2023-01-10T11:46:03.966Z,29.20
2023-01-10T11:49:04.950Z,29.83
2023-01-10T11:51:36.747Z,29.00
2023-01-10T11:54:06.268Z,26.43
2023-01-10T11:56:35.684Z,20.83
2023-01-10T11:59:12.617Z,21.67
2023-01-10T12:01:43.115Z,26.40
2023-01-10T12:04:15.977Z,29.57
2023-01-10T12:06:47.611Z,25.63
2023-01-10T12:09:35.391Z,25.23
2023-01-10T12:12:04.752Z,18.57
2023-01-10T12:14:33.293Z,21.67
2023-01-10T12:17:02.502Z,22.37
2023-01-10T12:19:31.222Z,18.73
2023-01-10T12:22:06.495Z,30.13
2023-01-10T12:24:36.592Z,14.60
2023-01-10T12:27:06.028Z,19.77
2023-01-10T12:29:36.730Z,19.03
2023-01-10T12:32:06.498Z,22.10
2023-01-10T12:34:38.191Z,17.20
2023-01-10T12:37:10.952Z,18.23
2023-01-10T12:39:41.389Z,15.33
2023-01-10T12:42:35.065Z,20.83
2023-01-10T12:45:05.849Z,15.53
2023-01-10T12:47:37.087Z,21.13
2023-01-10T12:50:08.668Z,24.43
2023-01-10T12:52:45.855Z,24.83
2023-01-10T12:55:15.416Z,23.77
2023-01-10T12:57:44.699Z,22.00
2023-01-10T13:00:18.678Z,24.90
2023-01-10T13:02:49.857Z,25.90
2023-01-10T13:05:20.360Z,23.53
2023-01-10T13:07:51.243Z,20.80
2023-01-10T13:10:22.278Z,21.60
2023-01-10T13:12:56.162Z,25.83
2023-01-10T13:15:25.561Z,26.90
2023-01-10T13:17:55.802Z,22.60
2023-01-10T13:20:41.071Z,25.97
2023-01-10T13:23:27.245Z,22.50
2023-01-10T13:25:57.169Z,25.70
2023-01-10T13:28:27.069Z,21.23
2023-01-10T13:30:56.270Z,20.37
2023-01-10T13:33:26.404Z,25.87
2023-01-10T13:35:55.486Z,30.27
2023-01-10T13:38:28.868Z,23.80
2023-01-10T13:41:01.377Z,28.47
2023-01-10T13:43:34.663Z,30.60
2023-01-10T13:46:21.467Z,30.90
2023-01-10T13:49:04.898Z,28.87
2023-01-10T13:51:33.454Z,32.20
2023-01-10T13:54:04.301Z,32.63
2023-01-10T13:56:34.249Z,33.10
2023-01-10T13:59:20.444Z,26.87
2023-01-10T14:02:10.401Z,31.77
2023-01-10T14:04:40.728Z,34.60
2023-01-10T14:07:15.334Z,34.97
2023-01-10T14:09:46.508Z,34.03
2023-01-10T14:12:20.257Z,37.43
2023-01-10T14:14:54.858Z,37.30
2023-01-10T14:17:24.646Z,35.57
2023-01-10T14:20:00.872Z,34.77
2023-01-10T14:22:32.099Z,35.30
2023-01-10T14:25:02.583Z,37.63
2023-01-10T14:27:40.123Z,36.57
2023-01-10T14:30:09.464Z,35.63
2023-01-10T14:32:39.421Z,39.33
2023-01-10T14:35:08.724Z,40.57
2023-01-10T14:37:42.249Z,37.33
2023-01-10T14:40:17.685Z,38.63
2023-01-10T14:42:47.170Z,40.87
2023-01-10T14:45:21.080Z,38.60
2023-01-10T14:47:49.702Z,36.70
2023-01-10T14:50:25.075Z,34.53
2023-01-10T14:52:53.523Z,35.47
2023-01-10T14:55:23.700Z,37.87
2023-01-10T14:57:56.030Z,32.37
2023-01-10T15:00:28.403Z,33.97
2023-01-10T15:02:57.698Z,35.33
2023-01-10T15:05:26.925Z,34.67
2023-01-10T15:07:55.617Z,33.20
2023-01-10T15:10:27.658Z,33.90
2023-01-10T15:12:58.165Z,29.23
2023-01-10T15:15:31.881Z,31.97
2023-01-10T15:18:01.695Z,29.30
2023-01-10T15:20:30.684Z,31.80
2023-01-10T15:23:00.944Z,30.57
2023-01-10T15:25:37.973Z,28.47
2023-01-10T15:28:07.311Z,29.67
2023-01-10T15:30:37.914Z,30.53
2023-01-10T15:33:07.744Z,26.77
2023-01-10T15:35:37.140Z,29.43
2023-01-10T15:38:08.157Z,25.23
2023-01-10T15:40:39.634Z,24.87
2023-01-10T15:43:12.577Z,28.17
2023-01-10T15:45:42.874Z,31.30
2023-01-10T15:48:27.080Z,24.87
2023-01-10T15:50:56.411Z,28.33
2023-01-10T15:53:45.550Z,29.30
2023-01-10T15:56:19.272Z,29.37
2023-01-10T15:58:47.705Z,30.70
2023-01-10T16:01:17.009Z,28.47
2023-01-10T16:03:47.173Z,31.70
2023-01-10T16:06:24.204Z,28.80
2023-01-10T16:08:54.247Z,28.57
2023-01-10T16:11:43.384Z,31.23
2023-01-10T16:14:11.876Z,33.23
2023-01-10T16:16:40.512Z,32.27
2023-01-10T16:19:09.013Z,29.90
2023-01-10T16:21:38.824Z,36.80
2023-01-10T16:24:10.833Z,37.90
2023-01-10T16:26:40.776Z,37.33
2023-01-10T16:29:09.212Z,33.07
2023-01-10T16:31:37.693Z,38.77
2023-01-10T16:34:06.270Z,38.93
2023-01-10T16:36:34.728Z,34.03
2023-01-10T16:39:06.207Z,38.77
2023-01-10T16:41:52.431Z,37.73
2023-01-10T16:44:22.272Z,39.33
2023-01-10T16:46:52.767Z,34.43
2023-01-10T16:49:21.315Z,37.97
2023-01-10T16:51:49.948Z,42.77
2023-01-10T16:54:19.913Z,41.20
2023-01-10T16:56:48.428Z,37.63
2023-01-10T16:59:18.086Z,42.47
2023-01-10T17:01:51.014Z,41.43
2023-01-10T17:04:21.749Z,39.27
2023-01-10T17:06:50.243Z,37.97
2023-01-10T17:09:22.335Z,36.53
2023-01-10T17:11:52.533Z,38.73
2023-01-10T17:14:21.047Z,35.67
2023-01-10T17:16:50.999Z,36.67
2023-01-10T17:19:19.494Z,36.77
2023-01-10T17:21:48.124Z,33.13
2023-01-10T17:24:16.977Z,31.87
2023-01-10T17:26:45.782Z,31.67
2023-01-10T17:29:14.249Z,32.20
2023-01-10T17:31:42.797Z,33.70
2023-01-10T17:34:12.711Z,35.33
2023-01-10T17:36:42.067Z,33.73
2023-01-10T17:39:11.536Z,34.80
2023-01-10T17:41:40.046Z,35.67
2023-01-10T17:44:08.541Z,33.30
2023-01-10T17:46:37.024Z,35.93
2023-01-10T17:49:05.537Z,33.23
2023-01-10T17:51:35.388Z,36.00
2023-01-10T17:54:03.855Z,36.17
2023-01-10T17:56:32.283Z,38.07
2023-01-10T17:59:00.728Z,36.03
2023-01-10T18:01:29.309Z,35.90
2023-01-10T18:03:57.810Z,34.70
2023-01-10T18:06:26.315Z,37.00
2023-01-10T18:08:56.216Z,35.03
2023-01-10T18:11:25.378Z,36.93
2023-01-10T18:13:53.993Z,35.83
2023-01-10T18:16:22.491Z,33.83
2023-01-10T18:18:51.082Z,35.80
2023-01-10T18:21:20.288Z,37.23
2023-01-10T18:23:49.976Z,34.63
2023-01-10T18:26:20.905Z,35.37
2023-01-10T18:28:49.558Z,35.03
2023-01-10T18:31:19.713Z,36.63
2023-01-10T18:33:48.643Z,36.70
2023-01-10T18:36:17.840Z,35.07
2023-01-10T18:38:47.911Z,34.90
2023-01-10T18:41:16.755Z,33.80
2023-01-10T18:43:46.729Z,33.33
2023-01-10T18:46:18.514Z,33.77
2023-01-10T18:48:47.560Z,34.27
2023-01-10T18:51:18.805Z,33.97
2023-01-10T18:53:49.008Z,33.40
2023-01-10T18:56:17.467Z,37.70
2023-01-10T18:58:47.327Z,34.97
2023-01-10T19:01:16.992Z,35.67
2023-01-10T19:03:45.910Z,35.27
2023-01-10T19:06:16.520Z,33.67
2023-01-10T19:08:45.601Z,34.40
2023-01-10T19:11:15.953Z,33.50
2023-01-10T19:13:45.135Z,33.73
2023-01-10T19:16:15.936Z,35.60
2023-01-10T19:18:44.957Z,34.17
2023-01-10T19:21:16.069Z,35.60
2023-01-10T19:23:44.692Z,37.63
2023-01-10T19:26:13.417Z,38.67
2023-01-10T19:28:42.144Z,35.20
2023-01-10T19:31:11.037Z,37.83
2023-01-10T19:33:41.770Z,43.50
2023-01-10T19:36:10.489Z,38.60
2023-01-10T19:38:39.037Z,39.27
2023-01-10T19:41:07.665Z,42.07
2023-01-10T19:43:36.120Z,42.70
2023-01-10T19:46:07.109Z,42.50
2023-01-10T19:48:38.245Z,42.20
2023-01-10T19:51:09.264Z,43.93
2023-01-10T19:53:38.027Z,42.60
2023-01-10T19:56:09.865Z,43.53
2023-01-10T19:58:38.988Z,40.07
2023-01-10T20:01:11.004Z,38.93
2023-01-10T20:03:42.306Z,36.70
2023-01-10T20:06:14.263Z,39.30
2023-01-10T20:08:42.821Z,35.97
2023-01-10T20:11:11.546Z,38.30
2023-01-10T20:13:44.578Z,36.37
2023-01-10T20:16:13.529Z,37.13
2023-01-10T20:18:42.060Z,36.63
2023-01-10T20:21:12.869Z,36.93
2023-01-10T20:23:41.708Z,37.73
2023-01-10T20:26:12.240Z,36.07
2023-01-10T20:28:41.458Z,34.80
2023-01-10T20:31:10.400Z,40.63
2023-01-10T20:33:38.834Z,34.83
2023-01-10T20:36:08.521Z,37.30
2023-01-10T20:38:38.893Z,37.23
2023-01-10T20:41:08.488Z,38.63
2023-01-10T20:43:37.861Z,39.80
2023-01-10T20:46:07.248Z,39.27
2023-01-10T20:48:35.964Z,37.97
2023-01-10T20:51:04.453Z,39.17
2023-01-10T20:53:33.295Z,40.63
2023-01-10T20:56:04.998Z,38.60
2023-01-10T20:58:35.001Z,39.47
2023-01-10T21:01:03.858Z,37.03
2023-01-10T21:03:32.342Z,39.07
2023-01-10T21:06:00.904Z,40.13
2023-01-10T21:08:30.218Z,37.07
2023-01-10T21:10:59.103Z,40.40
2023-01-10T21:13:29.157Z,37.37
2023-01-10T21:15:58.441Z,35.30
2023-01-10T21:18:28.004Z,35.50
2023-01-10T21:20:57.709Z,35.70
2023-01-10T21:23:27.333Z,34.27
2023-01-10T21:25:56.111Z,34.33
2023-01-10T21:28:24.593Z,34.57
2023-01-10T21:30:54.653Z,38.40
2023-01-10T21:33:23.284Z,36.50
2023-01-10T21:35:54.803Z,37.43
2023-01-10T21:38:23.303Z,37.63
2023-01-10T21:40:51.788Z,38.23
2023-01-10T21:43:20.254Z,35.80
2023-01-10T21:45:48.697Z,37.57
2023-01-10T21:48:18.721Z,36.73
2023-01-10T21:50:50.428Z,34.73
2023-01-10T21:53:18.930Z,38.30
2023-01-10T21:55:47.371Z,36.83
2023-01-10T21:58:15.883Z,39.50
2023-01-10T22:00:44.400Z,35.83
2023-01-10T22:03:12.822Z,36.50
2023-01-10T22:05:43.014Z,34.37
2023-01-10T22:08:11.471Z,34.83
2023-01-10T22:10:39.929Z,34.93
2023-01-10T22:13:08.397Z,33.50
2023-01-10T22:15:37.943Z,33.73
2023-01-10T22:18:06.507Z,34.80
2023-01-10T22:20:35.014Z,35.67
2023-01-10T22:23:04.915Z,33.27
2023-01-10T22:25:33.390Z,34.57
2023-01-10T22:28:01.884Z,33.90
2023-01-10T22:30:30.314Z,34.17
2023-01-10T22:32:58.823Z,34.83
2023-01-10T22:35:27.326Z,35.10
2023-01-10T22:37:56.872Z,33.97
2023-01-10T22:40:26.734Z,32.70
2023-01-10T22:42:55.193Z,35.90
2023-01-10T22:45:23.631Z,34.17
2023-01-10T22:47:52.333Z,38.87
2023-01-10T22:50:20.835Z,35.60
2023-01-10T22:52:49.969Z,36.50
2023-01-10T22:55:18.614Z,36.07
2023-01-10T22:57:48.476Z,38.97
2023-01-10T23:00:17.397Z,39.83
2023-01-10T23:02:45.862Z,42.17
2023-01-10T23:05:14.360Z,38.03
2023-01-10T23:07:42.828Z,35.33
2023-01-10T23:10:28.441Z,37.80
2023-01-10T23:12:59.790Z,36.90
2023-01-10T23:15:28.244Z,38.43
2023-01-10T23:17:56.727Z,39.30
2023-01-10T23:20:25.254Z,37.23
2023-01-10T23:22:53.678Z,38.20
2023-01-10T23:25:22.166Z,39.93
2023-01-10T23:27:50.680Z,39.47
2023-01-10T23:30:22.475Z,37.63
2023-01-10T23:32:51.908Z,41.07
2023-01-10T23:35:20.364Z,40.13
2023-01-10T23:37:48.841Z,41.40
2023-01-10T23:40:17.411Z,39.63
2023-01-10T23:42:45.876Z,36.43
2023-01-10T23:45:14.403Z,37.30
2023-01-10T23:47:44.276Z,37.97
2023-01-10T23:50:12.879Z,37.33
2023-01-10T23:52:41.309Z,39.03
2023-01-10T23:55:10.266Z,39.73
2023-01-10T23:57:38.729Z,34.63
